Terminal Aerodrome Forecast
Issued by NWS Portland, OR

Home | Current Version | Previous Version | Text Only | Print | Product List | Glossary On
Versions: 1 2 3 4 5 6 7 8 9 10 11 12 13 14 15 16 17 18 19 20 21 22 23 24 25 26 27 28 29 30 31 32 33 34 35 36 37 38 39 40
000
FTUS46 KPQR 241730
TAFAST
TAF
KAST 241730Z 2418/2518 28012G21KT P6SM -SHRA SCT025 BKN035 BKN060
     FM242300 28012KT P6SM SCT025 BKN040 BKN070
     FM250400 24009KT P6SM BKN040 BKN070
     FM250900 21014G22KT P6SM -RA BKN022 OVC035
     FM251400 23015G25KT 5SM -RA BR SCT015 OVC025=

USA.gov is the U.S. government's official web portal to all federal, state and local government web resources and services.